Middletown, RI

10:52 AM EST on January 26, 2015 (GMT -0500)
Newport State | Change Station
CLOSE
Current Station
Airport
Location: Newport,
Elevation: 171 ft
Nearby Weather Stations
Active Advisory: Blizzard Warning

Elev 171 ft 41.53 °N, 71.28 °W | Updated 11 minutes ago

Snow
Snow
20 °F
Feels Like 8 °F
N
12
Wind Variable Wind from NNE

Today
High -- | Low -- °F
--% Chance of Precip.
Yesterday
High -- | Low -- °F
Precip. -- in
7:02 AM 4:53 PM
Waxing Crescent, 44% visible
Pressure 30.07 in
Visibility 1.8 miles
Clouds Mostly Cloudy 2200 ft
Overcast 2900 ft
Windchill 8 °F
Dew Point 14 °F
Humidity 78%
Rainfall 0.00 in
Snow Depth Not available.
UV 1 out of 12
Pollen .10 out of 12
Air Quality Not available.
Flu Activity Not available.
SPECI KUUU 261541Z AUTO 02010KT 1 3/4SM -SN BKN022 OVC029 M07/M10 A3007 RMK AO2 SNB06 P0000 T10671100

More Conditions Fewer Conditions

Pressure 30.07 in
Visibility 1.8 miles
Clouds Mostly Cloudy 2200 ft
Overcast 2900 ft
Windchill 8 °F
Dew Point 14 °F
Humidity 78%
Rainfall 0.00 in
Snow Depth Not available.
UV 1 out of 12
Pollen .10 out of 12
Air Quality Not available.
Flu Activity Not available.
SPECI KUUU 261541Z AUTO 02010KT 1 3/4SM -SN BKN022 OVC029 M07/M10 A3007 RMK AO2 SNB06 P0000 T10671100

More Conditions Fewer Conditions

10-Day Weather Forecast

Almanac

Astronomy

Jan. 26, 2015 Rise Set
Actual Time
Civil Twilight
Nautical Twilight
Astronomical Twilight
Moon
Length of Visible Light
Length of Day
Tomorrow will be .
, % of the Moon is Illuminated

Today's Extremes

State Highs State Lows

Community

WunderPhotos

Upload Photos

1,790,249 photos uploaded!

WunderBlogs® & News

Nearby

Air Quality

  Air Quality AQ Index Pollutant
Not available.

Snow Depth

Station Depth Elevation

Earthquake Activity

City Distance Mag. Time & Date
Minimum magnitude displayed is 2.5.

Coastal Water Temperatures

Place Temperature

Nearby Weather Stations